sensor_id;sensor_type;location;lat;lon;timestamp;temperature;humidity
13231;DHT22;6681;53.254;10.398;2023-11-19T00:02:19;5.10;99.90
13231;DHT22;6681;53.254;10.398;2023-11-19T00:04:44;5.10;99.90
13231;DHT22;6681;53.254;10.398;2023-11-19T00:07:10;5.10;99.90
13231;DHT22;6681;53.254;10.398;2023-11-19T00:09:37;5.10;99.90
13231;DHT22;6681;53.254;10.398;2023-11-19T00:12:07;5.10;99.90
13231;DHT22;6681;53.254;10.398;2023-11-19T00:14:33;5.10;99.90
13231;DHT22;6681;53.254;10.398;2023-11-19T00:17:00;5.10;99.90
13231;DHT22;6681;53.254;10.398;2023-11-19T00:19:25;5.10;99.90
13231;DHT22;6681;53.254;10.398;2023-11-19T00:21:52;5.10;99.90
13231;DHT22;6681;53.254;10.398;2023-11-19T00:24:17;5.20;99.90
13231;DHT22;6681;53.254;10.398;2023-11-19T00:26:43;5.10;99.90
13231;DHT22;6681;53.254;10.398;2023-11-19T00:29:09;5.50;99.90
13231;DHT22;6681;53.254;10.398;2023-11-19T00:31:39;5.20;99.90
13231;DHT22;6681;53.254;10.398;2023-11-19T00:34:04;5.80;99.90
13231;DHT22;6681;53.254;10.398;2023-11-19T00:36:31;5.10;99.90
13231;DHT22;6681;53.254;10.398;2023-11-19T00:38:57;5.20;99.90
13231;DHT22;6681;53.254;10.398;2023-11-19T00:41:23;5.20;99.90
13231;DHT22;6681;53.254;10.398;2023-11-19T00:43:49;5.40;99.90
13231;DHT22;6681;53.254;10.398;2023-11-19T00:46:14;5.20;99.90
13231;DHT22;6681;53.254;10.398;2023-11-19T00:48:40;5.20;99.90
13231;DHT22;6681;53.254;10.398;2023-11-19T00:51:06;5.20;99.90
13231;DHT22;6681;53.254;10.398;2023-11-19T00:53:32;5.20;99.90
13231;DHT22;6681;53.254;10.398;2023-11-19T00:55:59;5.20;99.90
13231;DHT22;6681;53.254;10.398;2023-11-19T00:58:25;5.20;99.90
13231;DHT22;6681;53.254;10.398;2023-11-19T01:00:51;5.30;99.90
13231;DHT22;6681;53.254;10.398;2023-11-19T01:03:17;5.20;99.90
13231;DHT22;6681;53.254;10.398;2023-11-19T01:05:43;5.20;99.90
13231;DHT22;6681;53.254;10.398;2023-11-19T01:08:10;5.20;99.90
13231;DHT22;6681;53.254;10.398;2023-11-19T01:10:37;5.20;99.90
13231;DHT22;6681;53.254;10.398;2023-11-19T01:13:02;5.20;99.90
13231;DHT22;6681;53.254;10.398;2023-11-19T01:15:31;5.20;99.90
13231;DHT22;6681;53.254;10.398;2023-11-19T01:17:57;5.20;99.90
13231;DHT22;6681;53.254;10.398;2023-11-19T01:20:23;5.20;99.90
13231;DHT22;6681;53.254;10.398;2023-11-19T01:22:51;5.20;99.90
13231;DHT22;6681;53.254;10.398;2023-11-19T01:25:17;5.20;99.90
13231;DHT22;6681;53.254;10.398;2023-11-19T01:27:43;5.20;99.90
13231;DHT22;6681;53.254;10.398;2023-11-19T01:30:09;5.20;99.90
13231;DHT22;6681;53.254;10.398;2023-11-19T01:32:38;5.20;99.90
13231;DHT22;6681;53.254;10.398;2023-11-19T01:35:04;5.20;99.90
13231;DHT22;6681;53.254;10.398;2023-11-19T01:37:30;5.20;99.90
13231;DHT22;6681;53.254;10.398;2023-11-19T01:39:56;5.20;99.90
13231;DHT22;6681;53.254;10.398;2023-11-19T01:42:23;5.20;99.90
13231;DHT22;6681;53.254;10.398;2023-11-19T01:45:00;5.90;99.90
13231;DHT22;6681;53.254;10.398;2023-11-19T01:47:30;5.20;99.90
13231;DHT22;6681;53.254;10.398;2023-11-19T01:49:56;5.30;99.90
13231;DHT22;6681;53.254;10.398;2023-11-19T01:52:22;5.30;99.90
13231;DHT22;6681;53.254;10.398;2023-11-19T01:54:49;5.30;99.90
13231;DHT22;6681;53.254;10.398;2023-11-19T01:57:15;5.30;99.90
13231;DHT22;6681;53.254;10.398;2023-11-19T01:59:41;5.30;99.90
13231;DHT22;6681;53.254;10.398;2023-11-19T02:02:07;5.40;99.90
13231;DHT22;6681;53.254;10.398;2023-11-19T02:04:36;5.30;99.90
13231;DHT22;6681;53.254;10.398;2023-11-19T02:07:03;5.60;99.90
13231;DHT22;6681;53.254;10.398;2023-11-19T02:09:30;5.30;99.90
13231;DHT22;6681;53.254;10.398;2023-11-19T02:11:55;5.70;99.90
13231;DHT22;6681;53.254;10.398;2023-11-19T02:14:25;5.30;99.90
13231;DHT22;6681;53.254;10.398;2023-11-19T02:16:51;5.50;99.90
13231;DHT22;6681;53.254;10.398;2023-11-19T02:19:20;5.30;99.90
13231;DHT22;6681;53.254;10.398;2023-11-19T02:21:46;5.30;99.90
13231;DHT22;6681;53.254;10.398;2023-11-19T02:24:14;6.90;99.90
13231;DHT22;6681;53.254;10.398;2023-11-19T02:27:02;5.40;99.90
13231;DHT22;6681;53.254;10.398;2023-11-19T02:29:28;5.40;99.90
13231;DHT22;6681;53.254;10.398;2023-11-19T02:31:54;5.30;99.90
13231;DHT22;6681;53.254;10.398;2023-11-19T02:34:20;5.30;99.90
13231;DHT22;6681;53.254;10.398;2023-11-19T02:36:47;5.40;99.90
13231;DHT22;6681;53.254;10.398;2023-11-19T02:39:12;5.40;99.90
13231;DHT22;6681;53.254;10.398;2023-11-19T02:41:39;5.30;99.90
13231;DHT22;6681;53.254;10.398;2023-11-19T02:44:08;5.40;99.90
13231;DHT22;6681;53.254;10.398;2023-11-19T02:46:34;5.40;99.90
13231;DHT22;6681;53.254;10.398;2023-11-19T02:48:59;5.50;99.90
13231;DHT22;6681;53.254;10.398;2023-11-19T02:51:25;5.50;99.90
13231;DHT22;6681;53.254;10.398;2023-11-19T02:53:53;5.50;99.90
13231;DHT22;6681;53.254;10.398;2023-11-19T02:56:18;5.50;99.90
13231;DHT22;6681;53.254;10.398;2023-11-19T02:59:04;5.50;99.90
13231;DHT22;6681;53.254;10.398;2023-11-19T03:01:37;5.50;99.90
13231;DHT22;6681;53.254;10.398;2023-11-19T03:04:03;5.50;99.90
13231;DHT22;6681;53.254;10.398;2023-11-19T03:06:29;5.50;99.90
13231;DHT22;6681;53.254;10.398;2023-11-19T03:08:55;5.50;99.90
13231;DHT22;6681;53.254;10.398;2023-11-19T03:11:21;5.50;99.90
13231;DHT22;6681;53.254;10.398;2023-11-19T03:13:47;5.60;99.90
13231;DHT22;6681;53.254;10.398;2023-11-19T03:16:13;5.50;99.90
13231;DHT22;6681;53.254;10.398;2023-11-19T03:18:39;5.80;99.90
13231;DHT22;6681;53.254;10.398;2023-11-19T03:21:07;6.60;99.90
13231;DHT22;6681;53.254;10.398;2023-11-19T03:23:33;5.70;99.90
13231;DHT22;6681;53.254;10.398;2023-11-19T03:25:59;6.60;99.90
13231;DHT22;6681;53.254;10.398;2023-11-19T03:28:29;5.70;99.90
13231;DHT22;6681;53.254;10.398;2023-11-19T03:30:54;6.40;99.90
13231;DHT22;6681;53.254;10.398;2023-11-19T03:33:20;6.20;99.90
13231;DHT22;6681;53.254;10.398;2023-11-19T03:35:47;5.80;99.90
13231;DHT22;6681;53.254;10.398;2023-11-19T03:38:17;5.70;99.90
13231;DHT22;6681;53.254;10.398;2023-11-19T03:40:42;5.80;99.90
13231;DHT22;6681;53.254;10.398;2023-11-19T03:43:08;5.80;99.90
13231;DHT22;6681;53.254;10.398;2023-11-19T03:45:34;5.80;99.90
13231;DHT22;6681;53.254;10.398;2023-11-19T03:48:01;5.80;99.90
13231;DHT22;6681;53.254;10.398;2023-11-19T03:50:27;5.90;99.90
13231;DHT22;6681;53.254;10.398;2023-11-19T03:52:52;5.90;99.90
13231;DHT22;6681;53.254;10.398;2023-11-19T03:55:18;5.90;99.90
13231;DHT22;6681;53.254;10.398;2023-11-19T03:57:43;5.90;99.90
13231;DHT22;6681;53.254;10.398;2023-11-19T04:00:09;5.90;99.90
13231;DHT22;6681;53.254;10.398;2023-11-19T04:02:36;6.00;99.90
13231;DHT22;6681;53.254;10.398;2023-11-19T04:05:02;6.10;99.90
13231;DHT22;6681;53.254;10.398;2023-11-19T04:07:31;6.10;99.90
13231;DHT22;6681;53.254;10.398;2023-11-19T04:09:57;6.10;99.90
13231;DHT22;6681;53.254;10.398;2023-11-19T04:12:23;6.20;99.90
13231;DHT22;6681;53.254;10.398;2023-11-19T04:14:48;6.50;99.90
13231;DHT22;6681;53.254;10.398;2023-11-19T04:17:14;6.30;99.90
13231;DHT22;6681;53.254;10.398;2023-11-19T04:19:39;6.70;99.90
13231;DHT22;6681;53.254;10.398;2023-11-19T04:22:07;6.30;99.90
13231;DHT22;6681;53.254;10.398;2023-11-19T04:24:34;6.60;99.90
13231;DHT22;6681;53.254;10.398;2023-11-19T04:27:00;6.40;99.90
13231;DHT22;6681;53.254;10.398;2023-11-19T04:29:25;6.50;99.90
13231;DHT22;6681;53.254;10.398;2023-11-19T04:31:51;6.60;99.90
13231;DHT22;6681;53.254;10.398;2023-11-19T04:34:16;6.80;99.90
13231;DHT22;6681;53.254;10.398;2023-11-19T04:36:42;6.50;99.90
13231;DHT22;6681;53.254;10.398;2023-11-19T04:39:09;6.60;99.90
13231;DHT22;6681;53.254;10.398;2023-11-19T04:41:46;7.00;99.90
13231;DHT22;6681;53.254;10.398;2023-11-19T04:44:13;6.80;99.90
13231;DHT22;6681;53.254;10.398;2023-11-19T04:46:38;6.70;99.90
13231;DHT22;6681;53.254;10.398;2023-11-19T04:49:04;6.80;99.90
13231;DHT22;6681;53.254;10.398;2023-11-19T04:51:30;9.20;99.90
13231;DHT22;6681;53.254;10.398;2023-11-19T04:53:55;6.90;99.90
13231;DHT22;6681;53.254;10.398;2023-11-19T04:56:21;7.00;99.90
13231;DHT22;6681;53.254;10.398;2023-11-19T04:58:48;7.00;99.90
13231;DHT22;6681;53.254;10.398;2023-11-19T05:01:14;7.10;99.90
13231;DHT22;6681;53.254;10.398;2023-11-19T05:03:43;7.40;99.90
13231;DHT22;6681;53.254;10.398;2023-11-19T05:06:09;7.20;99.90
13231;DHT22;6681;53.254;10.398;2023-11-19T05:08:35;7.30;99.90
13231;DHT22;6681;53.254;10.398;2023-11-19T05:11:01;7.70;99.90
13231;DHT22;6681;53.254;10.398;2023-11-19T05:13:27;7.40;99.90
13231;DHT22;6681;53.254;10.398;2023-11-19T05:15:52;7.50;99.90
13231;DHT22;6681;53.254;10.398;2023-11-19T05:18:18;7.50;99.90
13231;DHT22;6681;53.254;10.398;2023-11-19T05:20:45;7.60;99.90
13231;DHT22;6681;53.254;10.398;2023-11-19T05:23:10;7.60;99.90
13231;DHT22;6681;53.254;10.398;2023-11-19T05:25:36;7.60;99.90
13231;DHT22;6681;53.254;10.398;2023-11-19T05:28:02;8.50;99.90
13231;DHT22;6681;53.254;10.398;2023-11-19T05:30:28;7.70;99.90
13231;DHT22;6681;53.254;10.398;2023-11-19T05:32:53;7.80;99.90
13231;DHT22;6681;53.254;10.398;2023-11-19T05:35:19;7.90;99.90
13231;DHT22;6681;53.254;10.398;2023-11-19T05:37:44;7.90;99.90
13231;DHT22;6681;53.254;10.398;2023-11-19T05:40:10;7.90;99.90
13231;DHT22;6681;53.254;10.398;2023-11-19T05:42:43;9.70;99.90
13231;DHT22;6681;53.254;10.398;2023-11-19T05:45:11;8.30;99.90
13231;DHT22;6681;53.254;10.398;2023-11-19T05:47:37;8.00;99.90
13231;DHT22;6681;53.254;10.398;2023-11-19T05:50:03;8.00;99.90
13231;DHT22;6681;53.254;10.398;2023-11-19T05:52:31;8.00;99.90
13231;DHT22;6681;53.254;10.398;2023-11-19T05:55:00;8.30;99.90
13231;DHT22;6681;53.254;10.398;2023-11-19T05:57:29;8.10;99.90
13231;DHT22;6681;53.254;10.398;2023-11-19T05:59:54;8.10;99.90
13231;DHT22;6681;53.254;10.398;2023-11-19T06:02:20;8.10;99.90
13231;DHT22;6681;53.254;10.398;2023-11-19T06:04:45;8.00;99.90
13231;DHT22;6681;53.254;10.398;2023-11-19T06:07:13;8.10;99.90
13231;DHT22;6681;53.254;10.398;2023-11-19T06:09:40;8.10;99.90
13231;DHT22;6681;53.254;10.398;2023-11-19T06:12:06;8.20;99.90
13231;DHT22;6681;53.254;10.398;2023-11-19T06:14:32;8.10;99.90
13231;DHT22;6681;53.254;10.398;2023-11-19T06:16:58;8.20;99.90
13231;DHT22;6681;53.254;10.398;2023-11-19T06:19:24;8.40;99.90
13231;DHT22;6681;53.254;10.398;2023-11-19T06:21:52;8.30;99.90
13231;DHT22;6681;53.254;10.398;2023-11-19T06:24:17;8.50;99.90
13231;DHT22;6681;53.254;10.398;2023-11-19T06:26:43;8.30;99.90
13231;DHT22;6681;53.254;10.398;2023-11-19T06:29:09;8.30;99.90
13231;DHT22;6681;53.254;10.398;2023-11-19T06:31:34;8.40;99.90
13231;DHT22;6681;53.254;10.398;2023-11-19T06:34:00;8.80;99.90
13231;DHT22;6681;53.254;10.398;2023-11-19T06:36:25;8.60;99.90
13231;DHT22;6681;53.254;10.398;2023-11-19T06:38:52;8.60;99.90
13231;DHT22;6681;53.254;10.398;2023-11-19T06:41:18;8.80;99.90
13231;DHT22;6681;53.254;10.398;2023-11-19T06:43:43;8.70;99.90
13231;DHT22;6681;53.254;10.398;2023-11-19T06:46:18;8.90;99.90
13231;DHT22;6681;53.254;10.398;2023-11-19T06:48:44;8.90;99.90
13231;DHT22;6681;53.254;10.398;2023-11-19T06:51:11;8.90;99.90
13231;DHT22;6681;53.254;10.398;2023-11-19T06:53:37;9.00;99.90
13231;DHT22;6681;53.254;10.398;2023-11-19T06:56:02;9.10;99.90
13231;DHT22;6681;53.254;10.398;2023-11-19T06:58:35;9.10;99.90
13231;DHT22;6681;53.254;10.398;2023-11-19T07:01:01;9.10;99.90
13231;DHT22;6681;53.254;10.398;2023-11-19T07:03:26;9.30;99.90
13231;DHT22;6681;53.254;10.398;2023-11-19T07:05:52;9.40;99.90
13231;DHT22;6681;53.254;10.398;2023-11-19T07:08:17;9.50;99.90
13231;DHT22;6681;53.254;10.398;2023-11-19T07:10:43;9.60;99.90
13231;DHT22;6681;53.254;10.398;2023-11-19T07:13:09;9.70;99.90
13231;DHT22;6681;53.254;10.398;2023-11-19T07:15:35;9.80;99.90
13231;DHT22;6681;53.254;10.398;2023-11-19T07:18:00;9.80;99.90
13231;DHT22;6681;53.254;10.398;2023-11-19T07:20:26;9.90;99.90
13231;DHT22;6681;53.254;10.398;2023-11-19T07:22:52;10.00;99.90
13231;DHT22;6681;53.254;10.398;2023-11-19T07:25:18;10.00;99.90
13231;DHT22;6681;53.254;10.398;2023-11-19T07:27:43;10.10;99.90
13231;DHT22;6681;53.254;10.398;2023-11-19T07:30:09;10.10;99.90
13231;DHT22;6681;53.254;10.398;2023-11-19T07:32:35;10.10;99.90
13231;DHT22;6681;53.254;10.398;2023-11-19T07:35:01;10.10;99.90
13231;DHT22;6681;53.254;10.398;2023-11-19T07:37:26;10.10;99.90
13231;DHT22;6681;53.254;10.398;2023-11-19T07:39:52;10.20;99.90
13231;DHT22;6681;53.254;10.398;2023-11-19T07:42:18;10.20;99.90
13231;DHT22;6681;53.254;10.398;2023-11-19T07:44:43;10.20;99.90
13231;DHT22;6681;53.254;10.398;2023-11-19T07:47:09;10.30;99.90
13231;DHT22;6681;53.254;10.398;2023-11-19T07:49:35;10.30;99.90
13231;DHT22;6681;53.254;10.398;2023-11-19T07:52:01;10.40;99.90
13231;DHT22;6681;53.254;10.398;2023-11-19T07:54:28;10.40;99.90
13231;DHT22;6681;53.254;10.398;2023-11-19T07:56:54;10.40;99.90
13231;DHT22;6681;53.254;10.398;2023-11-19T07:59:19;10.40;99.90
13231;DHT22;6681;53.254;10.398;2023-11-19T08:01:45;10.40;99.90
13231;DHT22;6681;53.254;10.398;2023-11-19T08:04:11;10.40;99.90
13231;DHT22;6681;53.254;10.398;2023-11-19T08:06:36;10.70;99.90
13231;DHT22;6681;53.254;10.398;2023-11-19T08:09:02;8.10;99.90
13231;DHT22;6681;53.254;10.398;2023-11-19T08:11:28;10.50;99.90
13231;DHT22;6681;53.254;10.398;2023-11-19T08:13:53;10.90;99.90
13231;DHT22;6681;53.254;10.398;2023-11-19T08:16:19;10.50;99.90
13231;DHT22;6681;53.254;10.398;2023-11-19T08:18:44;10.60;99.90
13231;DHT22;6681;53.254;10.398;2023-11-19T08:21:10;10.70;99.90
13231;DHT22;6681;53.254;10.398;2023-11-19T08:23:36;10.70;99.90
13231;DHT22;6681;53.254;10.398;2023-11-19T08:26:02;10.50;99.90
13231;DHT22;6681;53.254;10.398;2023-11-19T08:28:28;10.80;99.90
13231;DHT22;6681;53.254;10.398;2023-11-19T08:30:54;10.80;99.90
13231;DHT22;6681;53.254;10.398;2023-11-19T08:33:19;10.90;99.90
13231;DHT22;6681;53.254;10.398;2023-11-19T08:35:48;10.90;99.90
13231;DHT22;6681;53.254;10.398;2023-11-19T08:38:13;10.90;99.90
13231;DHT22;6681;53.254;10.398;2023-11-19T08:40:39;10.90;99.90
13231;DHT22;6681;53.254;10.398;2023-11-19T08:43:04;10.90;99.90
13231;DHT22;6681;53.254;10.398;2023-11-19T08:45:30;10.90;99.90
13231;DHT22;6681;53.254;10.398;2023-11-19T08:47:57;10.90;99.90
13231;DHT22;6681;53.254;10.398;2023-11-19T08:50:23;10.90;99.90
13231;DHT22;6681;53.254;10.398;2023-11-19T08:52:49;10.90;99.90
13231;DHT22;6681;53.254;10.398;2023-11-19T08:55:14;11.10;99.90
13231;DHT22;6681;53.254;10.398;2023-11-19T08:57:40;11.00;99.90
13231;DHT22;6681;53.254;10.398;2023-11-19T09:00:06;10.90;99.90
13231;DHT22;6681;53.254;10.398;2023-11-19T09:02:35;11.00;99.90
13231;DHT22;6681;53.254;10.398;2023-11-19T09:05:03;11.00;99.90
13231;DHT22;6681;53.254;10.398;2023-11-19T09:07:29;11.00;99.90
13231;DHT22;6681;53.254;10.398;2023-11-19T09:09:55;11.00;99.90
13231;DHT22;6681;53.254;10.398;2023-11-19T09:12:20;11.00;99.90
13231;DHT22;6681;53.254;10.398;2023-11-19T09:14:46;11.00;99.90
13231;DHT22;6681;53.254;10.398;2023-11-19T09:17:12;11.00;99.90
13231;DHT22;6681;53.254;10.398;2023-11-19T09:19:37;11.00;99.90
13231;DHT22;6681;53.254;10.398;2023-11-19T09:22:03;11.00;99.90
13231;DHT22;6681;53.254;10.398;2023-11-19T09:24:29;11.00;99.90
13231;DHT22;6681;53.254;10.398;2023-11-19T09:26:54;11.00;99.90
13231;DHT22;6681;53.254;10.398;2023-11-19T09:29:21;11.00;99.90
13231;DHT22;6681;53.254;10.398;2023-11-19T09:31:47;11.00;99.90
13231;DHT22;6681;53.254;10.398;2023-11-19T09:34:13;11.00;99.90
13231;DHT22;6681;53.254;10.398;2023-11-19T09:36:38;11.00;99.90
13231;DHT22;6681;53.254;10.398;2023-11-19T09:39:09;11.00;99.90
13231;DHT22;6681;53.254;10.398;2023-11-19T09:41:35;11.10;99.90
13231;DHT22;6681;53.254;10.398;2023-11-19T09:44:00;11.10;99.90
13231;DHT22;6681;53.254;10.398;2023-11-19T09:46:30;11.10;99.90
13231;DHT22;6681;53.254;10.398;2023-11-19T09:48:56;11.10;99.90
13231;DHT22;6681;53.254;10.398;2023-11-19T09:51:23;11.10;99.90
13231;DHT22;6681;53.254;10.398;2023-11-19T09:53:49;11.10;99.90
13231;DHT22;6681;53.254;10.398;2023-11-19T09:56:15;11.10;99.90
13231;DHT22;6681;53.254;10.398;2023-11-19T09:58:42;11.10;99.90
13231;DHT22;6681;53.254;10.398;2023-11-19T10:01:08;11.20;99.90
13231;DHT22;6681;53.254;10.398;2023-11-19T10:03:36;11.20;99.90
13231;DHT22;6681;53.254;10.398;2023-11-19T10:06:09;11.10;99.90
13231;DHT22;6681;53.254;10.398;2023-11-19T10:08:38;11.20;99.90
13231;DHT22;6681;53.254;10.398;2023-11-19T10:11:07;11.20;99.90
13231;DHT22;6681;53.254;10.398;2023-11-19T10:13:36;11.20;99.90
13231;DHT22;6681;53.254;10.398;2023-11-19T10:16:12;11.20;99.90
13231;DHT22;6681;53.254;10.398;2023-11-19T10:18:46;11.20;99.90
13231;DHT22;6681;53.254;10.398;2023-11-19T10:21:13;11.20;99.90
13231;DHT22;6681;53.254;10.398;2023-11-19T10:23:55;11.20;99.90
13231;DHT22;6681;53.254;10.398;2023-11-19T10:26:23;11.30;99.90
13231;DHT22;6681;53.254;10.398;2023-11-19T10:28:51;11.30;99.90
13231;DHT22;6681;53.254;10.398;2023-11-19T10:31:18;11.30;99.90
13231;DHT22;6681;53.254;10.398;2023-11-19T10:33:44;11.30;99.90
13231;DHT22;6681;53.254;10.398;2023-11-19T10:36:11;11.30;99.90
13231;DHT22;6681;53.254;10.398;2023-11-19T10:38:40;11.30;99.90
13231;DHT22;6681;53.254;10.398;2023-11-19T10:41:27;11.30;99.90
13231;DHT22;6681;53.254;10.398;2023-11-19T10:43:52;11.30;99.90
13231;DHT22;6681;53.254;10.398;2023-11-19T10:46:18;11.30;99.90
13231;DHT22;6681;53.254;10.398;2023-11-19T10:48:49;11.30;99.90
13231;DHT22;6681;53.254;10.398;2023-11-19T10:51:19;11.40;99.90
13231;DHT22;6681;53.254;10.398;2023-11-19T10:53:49;11.40;99.90
13231;DHT22;6681;53.254;10.398;2023-11-19T10:56:17;11.40;99.90
13231;DHT22;6681;53.254;10.398;2023-11-19T10:58:45;11.40;99.90
13231;DHT22;6681;53.254;10.398;2023-11-19T11:01:23;11.40;99.90
13231;DHT22;6681;53.254;10.398;2023-11-19T11:03:51;11.40;99.90
13231;DHT22;6681;53.254;10.398;2023-11-19T11:06:19;11.40;99.90
13231;DHT22;6681;53.254;10.398;2023-11-19T11:08:47;11.40;99.90
13231;DHT22;6681;53.254;10.398;2023-11-19T11:11:16;11.40;99.90
13231;DHT22;6681;53.254;10.398;2023-11-19T11:14:05;11.30;99.90
13231;DHT22;6681;53.254;10.398;2023-11-19T11:16:31;11.30;99.90
13231;DHT22;6681;53.254;10.398;2023-11-19T11:18:57;11.30;99.90
13231;DHT22;6681;53.254;10.398;2023-11-19T11:21:24;11.20;99.90
13231;DHT22;6681;53.254;10.398;2023-11-19T11:24:15;11.30;99.90
13231;DHT22;6681;53.254;10.398;2023-11-19T11:27:08;11.30;99.90
13231;DHT22;6681;53.254;10.398;2023-11-19T11:30:03;11.40;99.90
13231;DHT22;6681;53.254;10.398;2023-11-19T11:38:21;11.50;99.90
13231;DHT22;6681;53.254;10.398;2023-11-19T11:41:15;11.50;99.90
13231;DHT22;6681;53.254;10.398;2023-11-19T11:49:07;11.60;99.90
13231;DHT22;6681;53.254;10.398;2023-11-19T11:54:10;11.70;99.90
13231;DHT22;6681;53.254;10.398;2023-11-19T11:56:39;11.70;99.90
13231;DHT22;6681;53.254;10.398;2023-11-19T11:59:20;12.00;99.90
13231;DHT22;6681;53.254;10.398;2023-11-19T12:01:58;11.80;99.90
13231;DHT22;6681;53.254;10.398;2023-11-19T12:04:28;11.80;99.90
13231;DHT22;6681;53.254;10.398;2023-11-19T12:07:24;11.70;99.90
13231;DHT22;6681;53.254;10.398;2023-11-19T12:09:56;11.70;99.90
13231;DHT22;6681;53.254;10.398;2023-11-19T12:12:30;11.70;99.90
13231;DHT22;6681;53.254;10.398;2023-11-19T12:20:04;11.70;99.90
13231;DHT22;6681;53.254;10.398;2023-11-19T12:22:31;11.70;99.90
13231;DHT22;6681;53.254;10.398;2023-11-19T12:24:57;11.80;99.90
13231;DHT22;6681;53.254;10.398;2023-11-19T12:27:23;11.80;99.90
13231;DHT22;6681;53.254;10.398;2023-11-19T12:29:49;11.80;99.90
13231;DHT22;6681;53.254;10.398;2023-11-19T12:32:15;11.80;99.90
13231;DHT22;6681;53.254;10.398;2023-11-19T12:34:41;11.90;99.90
13231;DHT22;6681;53.254;10.398;2023-11-19T12:37:07;11.80;99.90
13231;DHT22;6681;53.254;10.398;2023-11-19T12:39:34;11.80;99.90
13231;DHT22;6681;53.254;10.398;2023-11-19T12:42:00;11.80;99.90
13231;DHT22;6681;53.254;10.398;2023-11-19T12:44:25;11.80;99.90
13231;DHT22;6681;53.254;10.398;2023-11-19T12:47:05;11.80;99.90
13231;DHT22;6681;53.254;10.398;2023-11-19T12:49:36;11.80;99.90
13231;DHT22;6681;53.254;10.398;2023-11-19T12:52:10;11.80;99.90
13231;DHT22;6681;53.254;10.398;2023-11-19T12:54:36;11.70;99.90
13231;DHT22;6681;53.254;10.398;2023-11-19T12:57:03;11.70;99.90
13231;DHT22;6681;53.254;10.398;2023-11-19T12:59:30;11.70;99.90
13231;DHT22;6681;53.254;10.398;2023-11-19T13:01:57;11.70;99.90
13231;DHT22;6681;53.254;10.398;2023-11-19T13:04:27;11.70;99.90
13231;DHT22;6681;53.254;10.398;2023-11-19T13:06:53;11.70;99.90
13231;DHT22;6681;53.254;10.398;2023-11-19T13:09:29;11.70;99.90
13231;DHT22;6681;53.254;10.398;2023-11-19T13:11:56;11.70;99.90
13231;DHT22;6681;53.254;10.398;2023-11-19T13:14:22;11.70;99.90
13231;DHT22;6681;53.254;10.398;2023-11-19T13:16:52;11.70;99.90
13231;DHT22;6681;53.254;10.398;2023-11-19T13:19:19;11.60;99.90
13231;DHT22;6681;53.254;10.398;2023-11-19T13:21:51;11.60;99.90
13231;DHT22;6681;53.254;10.398;2023-11-19T13:24:17;11.60;99.90
13231;DHT22;6681;53.254;10.398;2023-11-19T13:26:44;11.60;99.90
13231;DHT22;6681;53.254;10.398;2023-11-19T13:29:11;11.60;99.90
13231;DHT22;6681;53.254;10.398;2023-11-19T13:31:37;11.60;99.90
13231;DHT22;6681;53.254;10.398;2023-11-19T13:34:03;11.60;99.90
13231;DHT22;6681;53.254;10.398;2023-11-19T13:36:29;11.60;99.90
13231;DHT22;6681;53.254;10.398;2023-11-19T13:38:55;11.60;99.90
13231;DHT22;6681;53.254;10.398;2023-11-19T13:41:25;11.50;99.90
13231;DHT22;6681;53.254;10.398;2023-11-19T13:43:51;11.50;99.90
13231;DHT22;6681;53.254;10.398;2023-11-19T13:46:17;11.50;99.90
13231;DHT22;6681;53.254;10.398;2023-11-19T13:48:42;11.50;99.90
13231;DHT22;6681;53.254;10.398;2023-11-19T13:51:08;11.50;99.90
13231;DHT22;6681;53.254;10.398;2023-11-19T13:53:35;11.50;99.90
13231;DHT22;6681;53.254;10.398;2023-11-19T13:56:01;11.50;99.90
13231;DHT22;6681;53.254;10.398;2023-11-19T13:58:26;11.50;99.90
13231;DHT22;6681;53.254;10.398;2023-11-19T14:00:52;11.50;99.90
13231;DHT22;6681;53.254;10.398;2023-11-19T14:03:18;11.50;99.90
13231;DHT22;6681;53.254;10.398;2023-11-19T14:05:43;11.50;99.90
13231;DHT22;6681;53.254;10.398;2023-11-19T14:08:09;11.50;99.90
13231;DHT22;6681;53.254;10.398;2023-11-19T14:10:38;11.50;99.90
13231;DHT22;6681;53.254;10.398;2023-11-19T14:13:07;11.50;99.90
13231;DHT22;6681;53.254;10.398;2023-11-19T14:15:33;11.50;99.90
13231;DHT22;6681;53.254;10.398;2023-11-19T14:17:59;11.50;99.90
13231;DHT22;6681;53.254;10.398;2023-11-19T14:20:24;11.40;99.90
13231;DHT22;6681;53.254;10.398;2023-11-19T14:22:51;11.40;99.90
13231;DHT22;6681;53.254;10.398;2023-11-19T14:25:18;11.40;99.90
13231;DHT22;6681;53.254;10.398;2023-11-19T14:27:45;11.40;99.90
13231;DHT22;6681;53.254;10.398;2023-11-19T14:30:12;11.40;99.90
13231;DHT22;6681;53.254;10.398;2023-11-19T14:32:42;11.40;99.90
13231;DHT22;6681;53.254;10.398;2023-11-19T14:35:10;11.30;99.90
13231;DHT22;6681;53.254;10.398;2023-11-19T14:37:35;11.30;99.90
13231;DHT22;6681;53.254;10.398;2023-11-19T14:40:02;11.30;99.90
13231;DHT22;6681;53.254;10.398;2023-11-19T14:42:31;11.30;99.90
13231;DHT22;6681;53.254;10.398;2023-11-19T14:44:57;11.30;99.90
13231;DHT22;6681;53.254;10.398;2023-11-19T14:47:23;11.30;99.90
13231;DHT22;6681;53.254;10.398;2023-11-19T14:49:49;11.30;99.90
13231;DHT22;6681;53.254;10.398;2023-11-19T14:52:14;11.30;99.90
13231;DHT22;6681;53.254;10.398;2023-11-19T14:54:40;11.30;99.90
13231;DHT22;6681;53.254;10.398;2023-11-19T14:57:06;11.20;99.90
13231;DHT22;6681;53.254;10.398;2023-11-19T14:59:38;11.20;99.90
13231;DHT22;6681;53.254;10.398;2023-11-19T15:02:04;11.20;99.90
13231;DHT22;6681;53.254;10.398;2023-11-19T15:04:31;11.20;99.90
13231;DHT22;6681;53.254;10.398;2023-11-19T15:06:57;11.10;99.90
13231;DHT22;6681;53.254;10.398;2023-11-19T15:09:23;11.10;99.90
13231;DHT22;6681;53.254;10.398;2023-11-19T15:11:50;11.10;99.90
13231;DHT22;6681;53.254;10.398;2023-11-19T15:14:16;11.30;99.90
13231;DHT22;6681;53.254;10.398;2023-11-19T15:16:45;11.00;99.90
13231;DHT22;6681;53.254;10.398;2023-11-19T15:19:11;11.00;99.90
13231;DHT22;6681;53.254;10.398;2023-11-19T15:21:38;11.00;99.90
13231;DHT22;6681;53.254;10.398;2023-11-19T15:24:04;10.90;99.90
13231;DHT22;6681;53.254;10.398;2023-11-19T15:26:35;10.90;99.90
13231;DHT22;6681;53.254;10.398;2023-11-19T15:29:04;10.80;99.90
13231;DHT22;6681;53.254;10.398;2023-11-19T15:31:30;10.80;99.90
13231;DHT22;6681;53.254;10.398;2023-11-19T15:33:56;10.80;99.90
13231;DHT22;6681;53.254;10.398;2023-11-19T15:36:22;10.80;99.90
13231;DHT22;6681;53.254;10.398;2023-11-19T15:38:47;10.70;99.90
13231;DHT22;6681;53.254;10.398;2023-11-19T15:41:13;10.70;99.90
13231;DHT22;6681;53.254;10.398;2023-11-19T15:43:39;10.70;99.90
13231;DHT22;6681;53.254;10.398;2023-11-19T15:46:08;10.60;99.90
13231;DHT22;6681;53.254;10.398;2023-11-19T15:48:34;10.60;99.90
13231;DHT22;6681;53.254;10.398;2023-11-19T15:51:00;10.60;99.90
13231;DHT22;6681;53.254;10.398;2023-11-19T15:53:26;10.50;99.90
13231;DHT22;6681;53.254;10.398;2023-11-19T15:55:51;10.40;99.90
13231;DHT22;6681;53.254;10.398;2023-11-19T15:58:21;10.40;99.90